Time;durP1;ratioP1;P1;durP2;ratioP2;P2;SDS_P1;SDS_P2;PMS_P1;PMS_P2;Temp;Humidity;BMP_temperature;BMP_pressure;BME280_temperature;BME280_humidity;BME280_pressure;Samples;Min_cycle;Max_cycle;Signal;HPM_P1;HPM_P2
2022/11/07 00:00:28;;;;;;;1.70;1.60;;;10.70;99.90;;;;;;4982192;28;21024;-86
2022/11/07 00:02:55;;;;;;;1.20;1.10;;;10.70;99.90;;;;;;4983486;28;21029;-86
2022/11/07 00:05:22;;;;;;;2.43;1.60;;;10.70;99.90;;;;;;4983285;28;20656;-86
2022/11/07 00:07:49;;;;;;;2.60;1.30;;;10.30;99.90;;;;;;4983248;28;21339;-85
2022/11/07 00:10:16;;;;;;;1.33;1.23;;;10.60;99.90;;;;;;4982942;28;21589;-86
2022/11/07 00:12:44;;;;;;;1.40;1.30;;;10.70;99.90;;;;;;4981570;28;20640;-86
2022/11/07 00:15:11;;;;;;;1.80;1.50;;;10.70;99.90;;;;;;4977960;28;20676;-86
2022/11/07 00:17:38;;;;;;;2.17;1.13;;;10.20;99.90;;;;;;4983746;28;20631;-86
2022/11/07 00:20:06;;;;;;;1.27;1.17;;;10.70;99.90;;;;;;4980726;28;20671;-85
2022/11/07 00:22:33;;;;;;;1.60;1.17;;;10.80;99.90;;;;;;4983864;28;20629;-86
2022/11/07 00:24:59;;;;;;;1.50;1.40;;;10.60;99.90;;;;;;4979898;28;20641;-86
2022/11/07 00:27:26;;;;;;;1.30;1.23;;;10.70;99.90;;;;;;4981366;28;20679;-85
2022/11/07 00:29:54;;;;;;;1.50;1.40;;;10.50;99.90;;;;;;4983732;28;20660;-86
2022/11/07 00:32:21;;;;;;;1.10;1.10;;;10.80;99.90;;;;;;4978018;28;20664;-85
2022/11/07 00:34:48;;;;;;;1.27;1.20;;;10.70;99.90;;;;;;4996695;28;20998;-86
2022/11/07 00:37:14;;;;;;;1.30;1.20;;;10.60;99.90;;;;;;4981192;28;20633;-86
2022/11/07 00:39:41;;;;;;;1.33;1.23;;;10.40;99.90;;;;;;4980369;28;21237;-86
2022/11/07 00:42:08;;;;;;;2.00;1.60;;;10.50;99.90;;;;;;4984949;28;20643;-86
2022/11/07 00:44:34;;;;;;;1.53;1.00;;;10.40;99.90;;;;;;4988657;28;20625;-86
2022/11/07 00:47:02;;;;;;;1.30;1.20;;;10.40;99.90;;;;;;4981129;28;20628;-87
2022/11/07 00:49:29;;;;;;;1.77;0.90;;;10.40;99.90;;;;;;4979182;28;20689;-86
2022/11/07 00:51:56;;;;;;;3.10;1.63;;;10.60;99.90;;;;;;4983017;28;20635;-86
2022/11/07 00:54:23;;;;;;;1.30;1.20;;;10.30;99.90;;;;;;4977188;28;20648;-86
2022/11/07 00:56:49;;;;;;;1.40;1.30;;;10.30;99.90;;;;;;4992076;28;20643;-86
2022/11/07 00:59:16;;;;;;;1.60;1.40;;;9.90;99.90;;;;;;4983729;28;20668;-87
2022/11/07 01:01:43;;;;;;;1.30;1.27;;;10.50;99.90;;;;;;4981538;28;20636;-86
2022/11/07 01:06:58;;;;;;;2.50;1.13;;;10.00;99.90;;;;;;4982598;28;20658;-87
2022/11/07 01:09:25;;;;;;;2.77;1.30;;;10.40;99.90;;;;;;4987431;28;21016;-87
2022/11/07 01:11:51;;;;;;;1.53;1.10;;;10.40;99.90;;;;;;4981520;28;20629;-85
2022/11/07 01:14:21;;;;;;;1.93;1.30;;;10.70;99.90;;;;;;4985448;28;20664;-85
2022/11/07 01:16:48;;;;;;;1.73;1.50;;;10.60;99.90;;;;;;4982512;28;20641;-85
2022/11/07 01:19:18;;;;;;;1.57;1.10;;;10.40;99.90;;;;;;4980782;28;20648;-85
2022/11/07 01:21:45;;;;;;;1.50;1.40;;;10.10;99.90;;;;;;4981246;28;20634;-85
2022/11/07 01:24:13;;;;;;;1.13;1.03;;;10.60;99.90;;;;;;4977390;28;21011;-85
2022/11/07 01:26:41;;;;;;;1.10;1.00;;;10.50;99.90;;;;;;4983979;28;21007;-86
2022/11/07 01:29:09;;;;;;;2.40;1.40;;;9.80;99.90;;;;;;4982020;28;20684;-86
2022/11/07 01:31:36;;;;;;;1.97;1.60;;;10.20;99.90;;;;;;4979372;28;20639;-86
2022/11/07 01:34:03;;;;;;;0.97;0.97;;;10.20;99.90;;;;;;4979352;28;20629;-86
2022/11/07 01:36:31;;;;;;;1.50;1.30;;;9.90;99.90;;;;;;4980331;28;20687;-87
2022/11/07 01:38:58;;;;;;;1.20;1.10;;;10.20;99.90;;;;;;4980842;28;20671;-86
2022/11/07 01:41:27;;;;;;;1.43;1.33;;;10.00;99.90;;;;;;4982900;28;20641;-86
2022/11/07 01:44:00;;;;;;;1.13;1.03;;;10.00;99.90;;;;;;4981750;28;20635;-86
2022/11/07 01:46:31;;;;;;;1.33;1.20;;;10.00;99.90;;;;;;4982937;28;20640;-86
2022/11/07 01:49:05;;;;;;;1.10;1.00;;;10.00;99.90;;;;;;4981071;28;20676;-86
2022/11/07 01:51:38;;;;;;;1.40;1.30;;;10.20;99.90;;;;;;4983617;28;20644;-86
2022/11/07 01:54:07;;;;;;;2.30;1.17;;;9.90;99.90;;;;;;4973909;28;20644;-86
2022/11/07 01:56:38;;;;;;;1.40;1.10;;;10.00;99.90;;;;;;4983554;28;21428;-87
2022/11/07 01:59:07;;;;;;;4.33;2.80;;;9.70;99.90;;;;;;4982103;28;20645;-86
2022/11/07 02:01:34;;;;;;;1.33;1.23;;;9.80;99.90;;;;;;4983564;28;20625;-87
2022/11/07 02:04:02;;;;;;;1.73;1.20;;;9.80;99.90;;;;;;4978834;28;20629;-87
2022/11/07 02:06:35;;;;;;;1.80;0.90;;;9.50;99.90;;;;;;4982615;28;21157;-86
2022/11/07 02:09:03;;;;;;;1.30;1.20;;;9.70;99.90;;;;;;4981717;28;20884;-86
2022/11/07 02:11:30;;;;;;;1.50;1.23;;;9.70;99.90;;;;;;4978791;28;20618;-86
2022/11/07 02:13:56;;;;;;;1.43;1.17;;;9.70;99.90;;;;;;4981095;28;20629;-86
2022/11/07 02:16:23;;;;;;;1.20;1.10;;;9.80;99.90;;;;;;4980839;28;20636;-86
2022/11/07 02:18:50;;;;;;;1.43;1.33;;;9.90;99.90;;;;;;4982397;28;20983;-86
2022/11/07 02:21:26;;;;;;;0.97;0.87;;;9.90;99.90;;;;;;4978061;28;21026;-86
2022/11/07 02:24:01;;;;;;;1.13;1.00;;;9.80;99.90;;;;;;4978817;28;20641;-86
2022/11/07 02:26:29;;;;;;;1.10;1.00;;;10.10;99.90;;;;;;4977590;28;20636;-86
2022/11/07 02:28:57;;;;;;;1.53;1.43;;;10.10;99.90;;;;;;4983693;28;20691;-87
2022/11/07 02:31:24;;;;;;;3.37;1.37;;;10.00;99.90;;;;;;4982746;28;20620;-86
2022/11/07 02:33:51;;;;;;;1.27;1.17;;;9.80;99.90;;;;;;4981363;28;20625;-86
2022/11/07 02:36:21;;;;;;;1.10;1.00;;;10.00;99.90;;;;;;4980286;28;20622;-86
2022/11/07 02:38:50;;;;;;;2.07;1.23;;;10.20;99.90;;;;;;4983788;28;20644;-86
2022/11/07 02:41:21;;;;;;;1.47;1.23;;;9.70;99.90;;;;;;4978765;28;20660;-87
2022/11/07 02:43:53;;;;;;;2.40;1.43;;;10.30;99.90;;;;;;4979827;28;20641;-86
2022/11/07 02:46:22;;;;;;;1.70;1.60;;;10.30;99.90;;;;;;4980830;28;20633;-87
2022/11/07 02:48:51;;;;;;;2.60;1.20;;;10.40;99.90;;;;;;4985066;28;21251;-87
2022/11/07 02:51:18;;;;;;;1.17;1.10;;;10.40;99.90;;;;;;4984267;28;21000;-86
2022/11/07 02:53:45;;;;;;;2.70;1.50;;;10.20;99.90;;;;;;4977889;28;20629;-87
2022/11/07 02:56:12;;;;;;;2.30;1.37;;;10.30;99.90;;;;;;4983592;28;20636;-86
2022/11/07 02:58:39;;;;;;;1.47;1.37;;;10.30;99.90;;;;;;4980001;28;21003;-86
2022/11/07 03:01:07;;;;;;;1.53;1.00;;;10.30;99.90;;;;;;4980830;28;20629;-86
2022/11/07 03:03:34;;;;;;;1.23;1.00;;;10.60;99.90;;;;;;4977309;28;20634;-86
2022/11/07 03:06:01;;;;;;;1.20;1.10;;;10.70;99.90;;;;;;4980822;28;20664;-86
2022/11/07 03:08:29;;;;;;;1.27;1.17;;;10.60;99.90;;;;;;4982655;28;20708;-86
2022/11/07 03:10:55;;;;;;;2.47;1.30;;;10.90;99.90;;;;;;4982974;28;21453;-86
2022/11/07 03:13:22;;;;;;;0.93;0.90;;;10.60;99.90;;;;;;4983289;28;20664;-88
2022/11/07 03:15:49;;;;;;;1.33;1.13;;;10.40;99.90;;;;;;4981106;28;20661;-88
2022/11/07 03:18:19;;;;;;;1.27;1.17;;;11.10;99.90;;;;;;4985663;28;20635;-88
2022/11/07 03:20:46;;;;;;;1.27;1.17;;;10.90;99.90;;;;;;4983024;28;20632;-88
2022/11/07 03:23:12;;;;;;;1.23;0.93;;;10.80;99.90;;;;;;4983683;28;20629;-88
2022/11/07 03:25:39;;;;;;;1.23;1.13;;;10.40;99.90;;;;;;4980199;28;20663;-88
2022/11/07 03:28:06;;;;;;;1.83;1.70;;;10.80;99.90;;;;;;4980680;28;20636;-88
2022/11/07 03:30:33;;;;;;;1.40;1.00;;;10.70;99.90;;;;;;4975863;28;20660;-85
2022/11/07 03:33:00;;;;;;;1.07;0.90;;;10.80;99.90;;;;;;4979421;28;20640;-85
2022/11/07 03:35:28;;;;;;;1.40;1.30;;;10.90;99.90;;;;;;4976294;28;21025;-85
2022/11/07 03:37:54;;;;;;;2.40;1.40;;;10.60;99.90;;;;;;4976536;28;20633;-86
2022/11/07 03:40:21;;;;;;;3.40;1.17;;;10.70;99.90;;;;;;4983029;28;20629;-86
2022/11/07 03:42:48;;;;;;;1.77;0.90;;;10.70;99.90;;;;;;4982769;28;20612;-86
2022/11/07 03:45:16;;;;;;;1.43;1.10;;;10.50;99.90;;;;;;4981052;28;20996;-85
2022/11/07 03:47:44;;;;;;;1.93;1.03;;;11.00;99.90;;;;;;4978939;28;20640;-85
2022/11/07 03:50:15;;;;;;;1.40;1.30;;;11.00;99.90;;;;;;4977695;28;20684;-85
2022/11/07 03:52:43;;;;;;;1.60;1.30;;;11.00;99.90;;;;;;4978056;28;20633;-86
2022/11/07 03:55:10;;;;;;;1.50;1.40;;;10.90;99.90;;;;;;4977059;28;20628;-85
2022/11/07 03:57:37;;;;;;;1.37;1.27;;;11.00;99.90;;;;;;4977651;28;20652;-86
2022/11/07 04:00:06;;;;;;;3.80;1.30;;;10.80;99.90;;;;;;4976828;28;20656;-86
2022/11/07 04:02:32;;;;;;;1.30;1.20;;;10.80;99.90;;;;;;4980563;28;20624;-86
2022/11/07 04:04:59;;;;;;;1.73;1.40;;;10.70;99.90;;;;;;4982147;28;20656;-88
2022/11/07 04:07:26;;;;;;;1.67;1.50;;;10.80;99.90;;;;;;4980568;28;20634;-88
2022/11/07 04:09:54;;;;;;;1.77;1.30;;;10.70;99.90;;;;;;4982257;28;20676;-88
2022/11/07 04:17:51;;;;;;;3.60;2.90;;;10.80;99.90;;;;;;4982044;28;20664;-88
2022/11/07 04:20:17;;;;;;;4.17;3.53;;;10.50;99.90;;;;;;4980203;28;21261;-88
2022/11/07 04:22:44;;;;;;;3.93;3.50;;;10.60;99.90;;;;;;4984786;28;20635;-88
2022/11/07 04:25:12;;;;;;;3.37;3.07;;;10.40;99.90;;;;;;4982064;28;20640;-87
2022/11/07 04:27:41;;;;;;;3.83;3.37;;;10.80;99.90;;;;;;4984654;28;20949;-87
2022/11/07 04:30:22;;;;;;;3.17;2.97;;;10.60;99.90;;;;;;4982010;28;21150;-87
2022/11/07 04:32:50;;;;;;;2.63;2.43;;;10.50;99.90;;;;;;4983495;28;21376;-87
2022/11/07 04:35:18;;;;;;;2.30;2.20;;;10.50;99.90;;;;;;4983599;28;20641;-87
2022/11/07 04:37:45;;;;;;;1.83;1.73;;;10.40;99.90;;;;;;4985995;28;20632;-86
2022/11/07 04:40:15;;;;;;;2.37;2.17;;;10.50;99.90;;;;;;4987109;28;20728;-87
2022/11/07 04:42:42;;;;;;;2.07;1.60;;;10.30;99.90;;;;;;4990233;28;21006;-87
2022/11/07 04:45:10;;;;;;;1.67;1.57;;;10.30;99.90;;;;;;4979565;28;20628;-87
2022/11/07 04:47:37;;;;;;;1.53;1.03;;;10.50;99.90;;;;;;4985981;28;20616;-87
2022/11/07 04:50:05;;;;;;;2.47;1.70;;;10.10;99.90;;;;;;4981583;28;20695;-86
2022/11/07 04:52:32;;;;;;;3.50;1.87;;;10.40;99.90;;;;;;4984133;28;20617;-88
2022/11/07 04:54:59;;;;;;;1.37;1.20;;;10.20;99.90;;;;;;4984769;28;20642;-87
2022/11/07 04:57:27;;;;;;;2.40;1.23;;;10.40;99.90;;;;;;4984188;28;20660;-87
2022/11/07 04:59:54;;;;;;;1.80;1.27;;;10.30;99.90;;;;;;4987633;28;20649;-86
2022/11/07 05:02:23;;;;;;;1.47;1.37;;;10.40;99.90;;;;;;4984454;28;20648;-87
2022/11/07 05:04:50;;;;;;;3.07;1.47;;;10.30;99.90;;;;;;4987583;28;20674;-87
2022/11/07 05:07:18;;;;;;;4.80;1.53;;;10.40;99.90;;;;;;4986672;28;20818;-87
2022/11/07 05:09:45;;;;;;;0.90;0.90;;;10.30;99.90;;;;;;4987617;28;20680;-87
2022/11/07 05:12:11;;;;;;;2.47;1.60;;;10.60;99.90;;;;;;4983560;28;20633;-86
2022/11/07 05:14:40;;;;;;;1.50;1.40;;;10.60;99.90;;;;;;4983385;28;20664;-86
2022/11/07 05:17:06;;;;;;;2.80;1.23;;;10.30;99.90;;;;;;4981336;28;20989;-86
2022/11/07 05:19:33;;;;;;;1.60;1.50;;;10.60;99.90;;;;;;4980716;28;21899;-87
2022/11/07 05:24:44;;;;;;;1.20;1.03;;;10.50;99.90;;;;;;4972564;28;20731;-86
2022/11/07 05:27:17;;;;;;;3.63;1.27;;;10.50;99.90;;;;;;4980936;28;21014;-86
2022/11/07 05:29:45;;;;;;;2.17;1.27;;;10.30;99.90;;;;;;4980073;28;20692;-87
2022/11/07 05:32:12;;;;;;;4.00;1.43;;;10.30;99.90;;;;;;4981798;28;20635;-87
2022/11/07 05:34:39;;;;;;;2.93;1.70;;;10.40;99.90;;;;;;4979634;28;20633;-87
2022/11/07 05:37:07;;;;;;;1.73;1.30;;;10.30;99.90;;;;;;4981902;28;20627;-87
2022/11/07 05:39:34;;;;;;;1.40;1.30;;;9.70;99.90;;;;;;4981073;28;20648;-86
2022/11/07 05:42:01;;;;;;;1.47;1.30;;;10.30;99.90;;;;;;4983781;28;20633;-87
2022/11/07 05:44:28;;;;;;;2.80;1.80;;;10.30;99.90;;;;;;4981197;28;20641;-87
2022/11/07 05:46:58;;;;;;;2.63;1.57;;;10.30;99.90;;;;;;4989173;28;20624;-87
2022/11/07 05:49:26;;;;;;;2.63;1.43;;;10.20;99.90;;;;;;4976431;28;20713;-87
2022/11/07 05:51:53;;;;;;;2.63;1.73;;;10.30;99.90;;;;;;4980296;28;21539;-87
2022/11/07 05:54:20;;;;;;;3.00;1.80;;;10.20;99.90;;;;;;4978542;28;21382;-87
2022/11/07 05:56:46;;;;;;;3.23;2.10;;;10.00;99.90;;;;;;4982946;28;21110;-86
2022/11/07 05:59:14;;;;;;;4.00;2.13;;;10.20;99.90;;;;;;4979753;28;20653;-87
2022/11/07 06:01:40;;;;;;;4.00;2.00;;;9.80;99.90;;;;;;4982500;28;20633;-87
2022/11/07 06:04:12;;;;;;;3.67;2.00;;;10.30;99.90;;;;;;4979542;28;20643;-86
2022/11/07 06:06:39;;;;;;;1.70;1.60;;;10.30;99.90;;;;;;4981923;28;20618;-86
2022/11/07 06:09:06;;;;;;;1.53;1.43;;;10.20;99.90;;;;;;4984694;28;20685;-86
2022/11/07 06:11:33;;;;;;;2.40;2.20;;;10.10;99.90;;;;;;4978909;28;20629;-87
2022/11/07 06:14:00;;;;;;;2.80;1.80;;;10.20;99.90;;;;;;4982015;28;20620;-86
2022/11/07 06:16:28;;;;;;;2.43;2.03;;;10.20;99.90;;;;;;4977531;28;20617;-86
2022/11/07 06:18:55;;;;;;;2.37;2.17;;;10.30;99.90;;;;;;4980494;28;21259;-86
2022/11/07 06:21:23;;;;;;;1.93;1.80;;;9.80;99.90;;;;;;4973581;28;21240;-86
2022/11/07 06:23:50;;;;;;;2.90;1.70;;;9.60;99.90;;;;;;4976089;28;20632;-87
2022/11/07 06:26:17;;;;;;;2.60;2.10;;;9.90;99.90;;;;;;4978668;28;20637;-86
2022/11/07 06:28:44;;;;;;;3.40;2.47;;;10.10;99.90;;;;;;4977528;28;20664;-87
2022/11/07 06:31:11;;;;;;;2.40;2.20;;;9.90;99.90;;;;;;4977803;28;21310;-87
2022/11/07 06:33:38;;;;;;;2.30;2.10;;;10.10;99.90;;;;;;4972341;28;20641;-87
2022/11/07 06:36:07;;;;;;;4.50;2.43;;;10.10;99.90;;;;;;4974254;28;20633;-87
2022/11/07 06:38:36;;;;;;;3.33;2.20;;;10.10;99.90;;;;;;4982236;28;20648;-87
2022/11/07 06:41:07;;;;;;;2.60;2.40;;;9.90;99.90;;;;;;4976507;28;20636;-87
2022/11/07 06:43:34;;;;;;;4.07;2.03;;;10.00;99.90;;;;;;4978294;28;20656;-86
2022/11/07 06:46:03;;;;;;;2.60;2.40;;;9.90;99.90;;;;;;4980819;28;20629;-86
2022/11/07 06:48:31;;;;;;;3.00;2.33;;;9.90;99.90;;;;;;4979740;28;20654;-87
2022/11/07 06:50:59;;;;;;;3.10;2.10;;;9.80;99.90;;;;;;4983769;28;20668;-87
2022/11/07 06:53:26;;;;;;;2.70;2.00;;;9.50;99.90;;;;;;4977928;28;21202;-87
2022/11/07 06:55:55;;;;;;;3.13;1.53;;;10.10;99.90;;;;;;4975836;28;20640;-86
2022/11/07 06:58:22;;;;;;;2.67;2.20;;;9.70;99.90;;;;;;4976355;28;20669;-87
2022/11/07 07:00:49;;;;;;;2.10;1.87;;;10.00;99.90;;;;;;4978533;28;20629;-88
2022/11/07 07:03:16;;;;;;;2.70;1.90;;;9.90;99.90;;;;;;4979438;28;20656;-87
2022/11/07 07:05:44;;;;;;;3.57;2.43;;;10.20;99.90;;;;;;4978501;28;20629;-87
2022/11/07 07:08:13;;;;;;;2.80;1.80;;;10.00;99.90;;;;;;4975372;28;20635;-88
2022/11/07 07:10:43;;;;;;;2.40;2.00;;;10.00;99.90;;;;;;4981051;28;20664;-87
2022/11/07 07:13:12;;;;;;;2.60;1.93;;;10.20;99.90;;;;;;4976299;28;20643;-88
2022/11/07 07:15:39;;;;;;;3.20;2.37;;;9.90;99.90;;;;;;4980033;28;20668;-88
2022/11/07 07:18:05;;;;;;;5.37;2.03;;;10.20;99.90;;;;;;4979847;28;21089;-87
2022/11/07 07:20:32;;;;;;;1.90;1.50;;;10.00;99.90;;;;;;4978508;28;20709;-89
2022/11/07 07:22:59;;;;;;;3.10;1.87;;;10.40;99.90;;;;;;4980033;28;20668;-87
2022/11/07 07:25:26;;;;;;;1.90;1.80;;;10.50;99.90;;;;;;4972587;28;21100;-88
2022/11/07 07:27:53;;;;;;;2.80;2.03;;;10.50;99.90;;;;;;4975191;28;20632;-87
2022/11/07 07:30:22;;;;;;;5.70;2.00;;;10.70;99.90;;;;;;4981537;28;20672;-87
2022/11/07 07:32:49;;;;;;;3.93;1.90;;;10.50;99.90;;;;;;4978406;28;20632;-88
2022/11/07 07:35:16;;;;;;;5.47;3.10;;;10.50;99.90;;;;;;4983643;28;20643;-88
2022/11/07 07:37:43;;;;;;;6.00;2.40;;;10.60;99.90;;;;;;4980251;28;20640;-88
2022/11/07 07:40:11;;;;;;;5.63;2.33;;;10.70;99.90;;;;;;4981079;28;20652;-88
2022/11/07 07:42:42;;;;;;;3.10;2.23;;;10.70;99.90;;;;;;4981152;28;20613;-88
2022/11/07 07:45:10;;;;;;;12.13;2.00;;;10.70;99.90;;;;;;4979422;28;20625;-88
2022/11/07 07:47:39;;;;;;;2.53;2.30;;;11.00;99.90;;;;;;4975470;28;20675;-88
2022/11/07 07:50:09;;;;;;;4.00;2.73;;;11.10;99.90;;;;;;4982155;28;21550;-88
2022/11/07 07:52:36;;;;;;;4.33;3.13;;;11.30;99.90;;;;;;4982863;28;20624;-88
2022/11/07 07:55:03;;;;;;;3.17;2.40;;;10.80;99.90;;;;;;4987252;28;20621;-88
2022/11/07 07:57:30;;;;;;;5.20;2.57;;;11.50;99.90;;;;;;4983286;28;20648;-88
2022/11/07 07:59:56;;;;;;;7.13;3.30;;;10.90;99.90;;;;;;4982672;28;20676;-88
2022/11/07 08:02:23;;;;;;;4.40;3.43;;;11.50;99.90;;;;;;4984020;28;20629;-88
2022/11/07 08:04:52;;;;;;;3.40;2.60;;;11.50;99.90;;;;;;4982417;28;20635;-88
2022/11/07 08:07:19;;;;;;;4.00;2.80;;;11.20;99.90;;;;;;4979562;28;20713;-88
2022/11/07 08:09:45;;;;;;;5.50;3.70;;;11.70;99.90;;;;;;4988272;28;20684;-88
2022/11/07 08:12:12;;;;;;;5.17;2.80;;;11.50;99.90;;;;;;4980226;28;20636;-88
2022/11/07 08:14:39;;;;;;;3.07;2.30;;;12.00;99.90;;;;;;4984912;28;20632;-88
2022/11/07 08:17:06;;;;;;;2.80;2.20;;;11.70;99.90;;;;;;4983500;28;20637;-87
2022/11/07 08:19:34;;;;;;;4.83;2.30;;;11.80;99.90;;;;;;4980671;28;20686;-88
2022/11/07 08:22:02;;;;;;;2.37;1.60;;;12.20;99.90;;;;;;4980933;28;20624;-88
2022/11/07 08:24:29;;;;;;;4.07;2.50;;;12.30;99.90;;;;;;4984093;28;20633;-88
2022/11/07 08:26:56;;;;;;;3.27;1.60;;;12.30;99.90;;;;;;4981945;28;20625;-88
2022/11/07 08:29:23;;;;;;;5.43;1.70;;;12.20;99.90;;;;;;4979659;28;20661;-88
2022/11/07 08:31:50;;;;;;;4.50;2.13;;;12.40;99.90;;;;;;4986378;28;20656;-87
2022/11/07 08:34:17;;;;;;;4.10;1.80;;;12.20;99.90;;;;;;4979927;28;20995;-87
2022/11/07 08:36:44;;;;;;;5.87;2.90;;;12.10;99.90;;;;;;4982362;28;20683;-87
2022/11/07 08:39:12;;;;;;;9.03;2.67;;;12.20;99.90;;;;;;4985738;28;20652;-87
2022/11/07 08:41:39;;;;;;;4.57;2.80;;;12.10;99.90;;;;;;4980700;28;20624;-88
2022/11/07 08:44:08;;;;;;;4.60;2.90;;;12.00;99.90;;;;;;4984131;28;20624;-88
2022/11/07 08:46:35;;;;;;;5.70;3.53;;;12.50;99.90;;;;;;4983236;28;20625;-88
2022/11/07 08:49:01;;;;;;;6.67;3.63;;;12.20;99.90;;;;;;4978783;28;20688;-87
2022/11/07 08:51:28;;;;;;;12.10;4.60;;;12.10;99.90;;;;;;4974827;28;20745;-88
2022/11/07 08:53:55;;;;;;;6.90;4.13;;;12.60;99.90;;;;;;4979722;28;20624;-88
2022/11/07 08:56:23;;;;;;;6.77;4.70;;;12.60;99.90;;;;;;4982802;28;20636;-88
2022/11/07 08:58:50;;;;;;;5.53;4.60;;;12.70;99.90;;;;;;4979715;28;20667;-88
2022/11/07 09:01:18;;;;;;;8.57;4.60;;;12.80;99.90;;;;;;4980575;28;20995;-87
2022/11/07 09:03:44;;;;;;;6.67;4.30;;;12.70;99.90;;;;;;4980115;28;20741;-88
2022/11/07 09:06:11;;;;;;;8.10;5.53;;;12.80;99.90;;;;;;4986521;28;20617;-88
2022/11/07 09:08:39;;;;;;;9.83;5.07;;;12.90;99.90;;;;;;4986588;28;20657;-88
2022/11/07 09:11:06;;;;;;;13.53;4.23;;;12.90;99.90;;;;;;4981585;28;20736;-87
2022/11/07 09:13:35;;;;;;;9.40;5.07;;;13.00;99.90;;;;;;4973642;28;20672;-88
2022/11/07 09:16:04;;;;;;;7.33;4.87;;;12.70;99.90;;;;;;4979377;28;20637;-87
2022/11/07 09:18:31;;;;;;;6.83;3.87;;;13.20;99.90;;;;;;4980593;28;20657;-88
2022/11/07 09:20:58;;;;;;;6.77;4.03;;;13.40;99.90;;;;;;4980333;28;20628;-88
2022/11/07 09:23:25;;;;;;;6.43;3.63;;;13.10;99.90;;;;;;4978570;28;20637;-88
2022/11/07 09:25:53;;;;;;;8.70;3.80;;;13.60;99.90;;;;;;4981361;28;20651;-88
2022/11/07 09:28:20;;;;;;;7.43;3.20;;;13.70;99.90;;;;;;4980100;28;20660;-88
2022/11/07 09:30:53;;;;;;;6.70;3.50;;;13.50;99.90;;;;;;4978573;28;20657;-88
2022/11/07 09:33:20;;;;;;;10.33;3.00;;;13.90;99.90;;;;;;4983061;28;21101;-87
2022/11/07 09:35:47;;;;;;;10.37;3.20;;;14.00;99.90;;;;;;4981468;28;20633;-88
2022/11/07 09:38:14;;;;;;;6.93;2.40;;;14.10;92.40;;;;;;4977702;28;21063;-88
2022/11/07 09:40:48;;;;;;;9.20;2.30;;;14.30;51.00;;;;;;4984798;28;20632;-88
2022/11/07 09:43:33;;;;;;;4.83;1.87;;;14.40;1.00;;;;;;4976927;28;20648;-88
2022/11/07 09:46:12;;;;;;;5.53;1.90;;;14.60;1.00;;;;;;4973626;28;20633;-88
2022/11/07 09:48:44;;;;;;;4.77;1.83;;;14.60;1.00;;;;;;4979086;28;20657;-88
2022/11/07 09:51:15;;;;;;;6.43;1.80;;;14.60;1.00;;;;;;4977642;28;20696;-88
2022/11/07 09:53:46;;;;;;;2.23;1.63;;;14.60;1.00;;;;;;4977310;28;20707;-88
2022/11/07 09:56:14;;;;;;;4.83;1.73;;;14.60;1.00;;;;;;4977572;28;20652;-88
2022/11/07 09:58:43;;;;;;;6.10;1.57;;;14.70;1.00;;;;;;4980891;28;20656;-88
2022/11/07 10:01:15;;;;;;;6.37;1.90;;;14.70;1.00;;;;;;4983832;28;20622;-88
2022/11/07 10:03:43;;;;;;;3.97;2.23;;;14.70;1.00;;;;;;4976822;28;20696;-88
2022/11/07 10:06:19;;;;;;;4.80;2.50;;;14.70;1.00;;;;;;4977407;28;21004;-88
2022/11/07 10:08:50;;;;;;;5.40;2.63;;;14.60;1.00;;;;;;4977893;28;20767;-89
2022/11/07 10:11:31;;;;;;;7.00;1.80;;;14.60;1.00;;;;;;4974844;28;20652;-89
2022/11/07 10:14:08;;;;;;;7.47;2.70;;;14.60;1.00;;;;;;4974719;28;20621;-88
2022/11/07 10:17:02;;;;;;;36.90;8.03;;;14.60;1.00;;;;;;4978499;28;20669;-88
2022/11/07 10:19:50;;;;;;;7.37;3.57;;;14.70;1.00;;;;;;4979099;28;20772;-88
2022/11/07 10:22:31;;;;;;;10.63;2.70;;;14.70;1.00;;;;;;4980864;28;20972;-88
2022/11/07 10:25:18;;;;;;;5.47;2.80;;;14.70;1.00;;;;;;4978313;28;20643;-88
2022/11/07 10:27:46;;;;;;;7.57;3.37;;;14.80;1.00;;;;;;4978599;28;20674;-90
2022/11/07 10:30:16;;;;;;;4.97;2.40;;;14.80;1.00;;;;;;4983081;28;21200;-88
2022/11/07 10:32:52;;;;;;;7.07;2.47;;;14.80;1.00;;;;;;4977196;28;20621;-88
2022/11/07 10:35:25;;;;;;;5.50;2.20;;;14.80;1.00;;;;;;4977465;28;21204;-89
2022/11/07 10:37:56;;;;;;;9.93;2.17;;;14.70;1.00;;;;;;4978252;28;20625;-88
2022/11/07 10:40:27;;;;;;;3.57;1.90;;;14.90;1.00;;;;;;4977506;28;20677;-89
2022/11/07 10:42:55;;;;;;;1.90;1.47;;;14.90;1.00;;;;;;4981064;28;20743;-88
2022/11/07 10:45:23;;;;;;;5.70;2.83;;;14.90;1.00;;;;;;4977834;28;20633;-89
2022/11/07 10:47:59;;;;;;;3.63;1.70;;;15.00;1.00;;;;;;4976317;28;20664;-88
2022/11/07 10:50:26;;;;;;;2.63;1.57;;;15.10;1.00;;;;;;4972560;28;20637;-88
2022/11/07 10:52:55;;;;;;;5.63;2.07;;;15.10;1.00;;;;;;4977938;28;20632;-88
2022/11/07 10:55:22;;;;;;;7.93;1.80;;;15.20;1.00;;;;;;4974614;28;20629;-88
2022/11/07 10:57:53;;;;;;;5.60;1.60;;;15.20;99.90;;;;;;4978731;28;21157;-88
2022/11/07 11:00:24;;;;;;;4.40;1.90;;;15.30;99.90;;;;;;4979025;28;20621;-88
2022/11/07 11:02:53;;;;;;;6.47;2.30;;;15.20;99.90;;;;;;4976010;28;20645;-88
2022/11/07 11:05:32;;;;;;;6.10;2.30;;;15.20;99.90;;;;;;4975459;28;20646;-88
2022/11/07 11:08:13;;;;;;;1.97;1.43;;;15.30;99.90;;;;;;4983249;28;20620;-88
2022/11/07 11:10:41;;;;;;;6.00;1.70;;;15.60;99.90;;;;;;4979379;28;20665;-88
2022/11/07 11:13:22;;;;;;;2.50;1.63;;;15.70;1.00;;;;;;4973090;28;21237;-89
2022/11/07 11:15:49;;;;;;;6.83;1.60;;;15.80;1.00;;;;;;4978868;28;20625;-88
2022/11/07 11:18:18;;;;;;;5.23;1.90;;;15.80;63.20;;;;;;4977748;28;21168;-88
2022/11/07 11:20:54;;;;;;;3.67;1.50;;;16.00;43.90;;;;;;4977793;28;20625;-88
2022/11/07 11:23:23;;;;;;;9.83;1.50;;;16.10;1.00;;;;;;4980088;28;20649;-88
2022/11/07 11:25:57;;;;;;;4.13;1.53;;;16.20;1.00;;;;;;4981213;28;20655;-89
2022/11/07 11:28:30;;;;;;;6.50;3.73;;;16.30;99.90;;;;;;4980537;28;21062;-88
2022/11/07 11:31:01;;;;;;;3.33;1.40;;;16.60;99.90;;;;;;4982837;28;20680;-89
2022/11/07 11:33:36;;;;;;;7.77;1.67;;;16.90;1.00;;;;;;4982791;28;20727;-88
2022/11/07 11:36:11;;;;;;;5.50;1.80;;;17.30;41.30;;;;;;4988768;28;20987;-89
2022/11/07 11:38:38;;;;;;;5.27;1.30;;;17.80;99.90;;;;;;4979908;28;21193;-90
2022/11/07 11:41:14;;;;;;;5.10;1.70;;;18.30;1.00;;;;;;4979561;28;20636;-89
2022/11/07 11:43:47;;;;;;;4.57;1.13;;;18.70;1.00;;;;;;4984731;28;20641;-90
2022/11/07 11:46:20;;;;;;;3.90;1.20;;;18.90;99.90;;;;;;4979359;28;21116;-88
2022/11/07 11:48:50;;;;;;;2.30;1.20;;;19.00;99.90;;;;;;4986274;28;20623;-89
2022/11/07 11:51:27;;;;;;;4.60;1.57;;;19.10;99.90;;;;;;4979106;28;20680;-88
2022/11/07 11:53:54;;;;;;;2.20;1.10;;;19.00;99.90;;;;;;4977223;28;20640;-89
2022/11/07 11:56:36;;;;;;;3.37;0.90;;;18.90;99.90;;;;;;4988995;28;20636;-89
2022/11/07 11:59:20;;;;;;;2.07;1.27;;;19.00;97.30;;;;;;4982415;28;20644;-89
2022/11/07 12:01:57;;;;;;;2.27;1.20;;;18.90;99.90;;;;;;4982168;28;20653;-90
2022/11/07 12:04:44;;;;;;;3.03;1.20;;;18.80;99.90;;;;;;4976598;28;20636;-88
2022/11/07 12:07:35;;;;;;;4.07;1.30;;;18.50;1.00;;;;;;4979666;28;20644;-89
2022/11/07 12:10:05;;;;;;;5.30;1.13;;;18.40;1.00;;;;;;4979277;28;20628;-88
2022/11/07 12:12:46;;;;;;;3.20;1.47;;;18.20;1.00;;;;;;4982189;28;20771;-88
2022/11/07 12:15:28;;;;;;;3.77;1.13;;;18.10;99.90;;;;;;4978301;28;20660;-88
2022/11/07 12:18:03;;;;;;;2.23;1.10;;;18.00;99.90;;;;;;4978194;28;21080;-88
2022/11/07 12:20:36;;;;;;;2.60;1.20;;;17.90;1.00;;;;;;4986340;28;20625;-88
2022/11/07 12:23:24;;;;;;;2.37;1.20;;;17.90;1.00;;;;;;4989195;28;20640;-88
2022/11/07 12:25:56;;;;;;;2.67;1.17;;;17.90;1.00;;;;;;4986507;28;20636;-88
2022/11/07 12:28:35;;;;;;;3.23;1.00;;;17.90;99.90;;;;;;4982601;28;20642;-89
2022/11/07 12:31:20;;;;;;;5.00;1.03;;;17.80;35.60;;;;;;4984239;28;20675;-89
2022/11/07 12:33:53;;;;;;;1.93;1.30;;;17.80;63.40;;;;;;4990280;28;21007;-89
2022/11/07 12:36:32;;;;;;;3.83;2.60;;;17.70;99.90;;;;;;4984154;28;20663;-89
2022/11/07 12:39:28;;;;;;;2.00;1.20;;;17.70;99.90;;;;;;4993457;28;20631;-90
2022/11/07 12:41:58;;;;;;;4.50;1.90;;;17.70;99.90;;;;;;4988004;28;21026;-90
2022/11/07 12:44:47;;;;;;;4.70;1.60;;;17.60;90.20;;;;;;4986342;28;20643;-89
2022/11/07 12:47:32;;;;;;;2.23;1.27;;;17.60;1.00;;;;;;4984790;28;20670;-89
2022/11/07 12:50:22;;;;;;;3.83;1.67;;;17.60;99.90;;;;;;4985811;28;20622;-90
2022/11/07 12:53:00;;;;;;;2.87;1.40;;;17.70;1.00;;;;;;4989115;28;20668;-88
2022/11/07 12:55:36;;;;;;;1.17;0.70;;;17.70;99.90;;;;;;4987673;28;20660;-89
2022/11/07 12:58:05;;;;;;;4.30;1.30;;;17.70;1.00;;;;;;4986086;28;20632;-90
2022/11/07 13:00:32;;;;;;;2.50;0.93;;;17.60;1.00;;;;;;4982059;28;21200;-90
2022/11/07 13:03:18;;;;;;;1.90;1.10;;;17.60;1.00;;;;;;4986757;28;20635;-90
2022/11/07 13:06:01;;;;;;;1.27;0.80;;;17.60;99.90;;;;;;4974023;28;20632;-90
2022/11/07 13:08:34;;;;;;;1.87;1.10;;;17.60;35.30;;;;;;4991557;28;20623;-90
2022/11/07 13:11:12;;;;;;;3.07;1.10;;;17.50;1.00;;;;;;4999558;28;21020;-90